createdAt,value
2019-04-29T00:01:37.735Z,91.40
2019-04-29T00:04:07.961Z,91.40
2019-04-29T00:06:38.125Z,91.50
2019-04-29T00:09:15.599Z,91.40
2019-04-29T00:11:45.792Z,91.40
2019-04-29T00:14:15.998Z,91.40
2019-04-29T00:16:56.000Z,91.30
2019-04-29T00:19:42.766Z,91.70
2019-04-29T00:22:12.957Z,91.40
2019-04-29T00:24:43.152Z,91.30
2019-04-29T00:27:13.409Z,91.20
2019-04-29T00:29:43.724Z,91.20
2019-04-29T00:32:13.901Z,91.30
2019-04-29T00:34:44.139Z,91.30
2019-04-29T00:37:31.422Z,91.30
2019-04-29T00:40:29.942Z,91.30
2019-04-29T00:43:10.569Z,91.40
2019-04-29T00:45:40.783Z,91.50
2019-04-29T00:48:11.074Z,91.40
2019-04-29T00:50:41.273Z,91.40
2019-04-29T00:53:11.514Z,91.40
2019-04-29T00:55:41.756Z,91.50
2019-04-29T00:58:11.927Z,91.60
2019-04-29T01:00:42.800Z,91.50
2019-04-29T01:03:12.977Z,91.60
2019-04-29T01:05:43.182Z,91.70
2019-04-29T01:08:13.278Z,91.70
2019-04-29T01:10:43.617Z,91.80
2019-04-29T01:13:13.800Z,91.90
2019-04-29T01:15:43.986Z,91.90
2019-04-29T01:18:14.483Z,91.80
2019-04-29T01:20:44.684Z,92.00
2019-04-29T01:23:14.864Z,92.00
2019-04-29T01:25:46.692Z,91.90
2019-04-29T01:28:25.403Z,91.60
2019-04-29T01:31:01.529Z,91.50
2019-04-29T01:33:31.703Z,91.40
2019-04-29T01:36:23.702Z,91.30
2019-04-29T01:38:55.556Z,91.30
2019-04-29T01:41:27.430Z,91.30
2019-04-29T01:44:07.722Z,91.40
2019-04-29T01:46:37.818Z,91.50
2019-04-29T01:49:08.089Z,91.40
2019-04-29T01:51:38.327Z,91.50
2019-04-29T01:54:08.606Z,91.60
2019-04-29T01:56:38.780Z,91.60
2019-04-29T01:59:09.006Z,91.60
2019-04-29T02:01:39.231Z,91.70
2019-04-29T02:04:09.385Z,91.80
2019-04-29T02:06:39.625Z,91.70
2019-04-29T02:09:14.095Z,91.70
2019-04-29T02:11:44.212Z,91.90
2019-04-29T02:14:14.334Z,91.80
2019-04-29T02:16:44.557Z,91.70
2019-04-29T02:19:14.650Z,91.70
2019-04-29T02:22:03.725Z,91.80
2019-04-29T02:24:34.839Z,91.90
2019-04-29T02:27:06.955Z,92.10
2019-04-29T02:29:37.124Z,92.10
2019-04-29T02:32:07.324Z,92.10
2019-04-29T02:34:37.440Z,92.20
2019-04-29T02:37:09.278Z,92.20
2019-04-29T02:39:44.552Z,92.30
2019-04-29T02:42:42.760Z,92.40
2019-04-29T02:45:18.520Z,92.30
2019-04-29T02:47:48.647Z,92.40
2019-04-29T02:50:19.479Z,92.40
2019-04-29T02:52:49.670Z,92.40
2019-04-29T02:55:25.939Z,92.40
2019-04-29T02:58:02.435Z,92.40
2019-04-29T03:01:00.721Z,92.30
2019-04-29T03:03:43.522Z,92.10
2019-04-29T03:06:13.618Z,92.30
2019-04-29T03:08:43.792Z,92.10
2019-04-29T03:11:14.651Z,92.20
2019-04-29T03:13:44.832Z,92.20
2019-04-29T03:16:15.007Z,92.30
2019-04-29T03:18:49.682Z,92.40
2019-04-29T03:21:24.469Z,92.40
2019-04-29T03:23:55.050Z,92.30
2019-04-29T03:26:25.220Z,92.20
2019-04-29T03:28:55.531Z,91.80
2019-04-29T03:31:25.862Z,91.90
2019-04-29T03:33:56.010Z,91.80
2019-04-29T03:36:26.238Z,91.90
2019-04-29T03:38:56.370Z,91.80
2019-04-29T03:41:26.622Z,91.90
2019-04-29T03:43:56.812Z,91.90
2019-04-29T03:46:27.051Z,91.80
2019-04-29T03:48:57.129Z,92.00
2019-04-29T03:51:27.228Z,92.10
2019-04-29T03:53:57.337Z,92.10
2019-04-29T03:56:27.463Z,92.30
2019-04-29T03:58:57.766Z,92.40
2019-04-29T04:01:35.993Z,92.50
2019-04-29T04:04:19.004Z,92.70
2019-04-29T04:06:54.246Z,92.80
2019-04-29T04:09:29.845Z,92.80
2019-04-29T04:12:00.029Z,92.60
2019-04-29T04:14:30.136Z,92.60
2019-04-29T04:17:31.369Z,92.60
2019-04-29T04:20:01.674Z,92.90
2019-04-29T04:22:46.417Z,92.50
2019-04-29T04:25:16.980Z,92.50
2019-04-29T04:27:47.666Z,92.60
2019-04-29T04:30:18.876Z,92.50
2019-04-29T04:32:49.112Z,92.70
2019-04-29T04:35:19.307Z,92.80
2019-04-29T04:37:49.456Z,92.90
2019-04-29T04:40:25.752Z,92.90
2019-04-29T04:42:55.955Z,92.90
2019-04-29T04:45:26.064Z,93.00
2019-04-29T04:47:56.258Z,93.00
2019-04-29T04:50:26.447Z,93.00
2019-04-29T04:52:56.657Z,93.00
2019-04-29T04:55:29.355Z,92.90
2019-04-29T04:57:59.539Z,92.90
2019-04-29T05:00:31.592Z,93.00
2019-04-29T05:03:01.755Z,93.00
2019-04-29T05:05:32.722Z,93.10
2019-04-29T05:08:02.934Z,93.10
2019-04-29T05:10:33.095Z,93.20
2019-04-29T05:13:03.279Z,93.20
2019-04-29T05:15:33.387Z,93.20
2019-04-29T05:18:03.564Z,93.20
2019-04-29T05:20:33.729Z,93.20
2019-04-29T05:23:03.914Z,93.50
2019-04-29T05:25:35.264Z,93.50
2019-04-29T05:28:05.761Z,93.40
2019-04-29T05:30:35.771Z,93.50
2019-04-29T05:33:05.946Z,93.60
2019-04-29T05:36:02.017Z,93.60
2019-04-29T05:38:58.399Z,93.60
2019-04-29T05:41:30.069Z,93.70
2019-04-29T05:44:14.745Z,93.80
2019-04-29T05:47:06.568Z,93.80
2019-04-29T05:49:48.055Z,94.00
2019-04-29T05:52:43.388Z,94.00
2019-04-29T05:55:15.387Z,94.00
2019-04-29T05:57:45.738Z,94.10
2019-04-29T06:00:18.742Z,94.10
2019-04-29T06:02:48.636Z,94.00
2019-04-29T06:05:18.734Z,94.10
2019-04-29T06:07:51.536Z,94.20
2019-04-29T06:10:22.888Z,94.30
2019-04-29T06:12:52.697Z,94.30
2019-04-29T06:15:22.884Z,94.40
2019-04-29T06:17:53.060Z,94.60
2019-04-29T06:20:23.230Z,94.70
2019-04-29T06:22:53.470Z,94.80
2019-04-29T06:25:23.666Z,94.80
2019-04-29T06:27:53.784Z,94.90
2019-04-29T06:30:24.093Z,94.90
2019-04-29T06:32:54.263Z,94.90
2019-04-29T06:35:24.458Z,95.00
2019-04-29T06:37:54.591Z,95.00
2019-04-29T06:40:24.705Z,94.90
2019-04-29T06:42:55.259Z,94.80
2019-04-29T06:45:25.557Z,94.80
2019-04-29T06:47:55.798Z,95.20
2019-04-29T06:50:25.929Z,94.80
2019-04-29T06:52:56.137Z,94.70
2019-04-29T06:55:26.938Z,94.60
2019-04-29T06:57:57.075Z,94.70
2019-04-29T07:00:27.292Z,94.70
2019-04-29T07:02:57.407Z,94.50
2019-04-29T07:05:27.599Z,94.50
2019-04-29T07:07:57.721Z,94.40
2019-04-29T07:10:27.907Z,93.80
2019-04-29T07:12:58.118Z,93.80
2019-04-29T07:15:28.316Z,93.70
2019-04-29T07:17:58.547Z,93.50
2019-04-29T07:20:32.536Z,93.30
2019-04-29T07:23:02.423Z,93.40
2019-04-29T07:25:32.754Z,93.30
2019-04-29T07:28:02.979Z,93.30
2019-04-29T07:30:33.158Z,93.30
2019-04-29T07:33:05.555Z,93.20
2019-04-29T07:35:38.000Z,93.20
2019-04-29T07:38:08.631Z,92.90
2019-04-29T07:40:43.381Z,92.60
2019-04-29T07:43:11.346Z,92.60
2019-04-29T07:45:53.795Z,92.60
2019-04-29T07:48:23.955Z,92.50
2019-04-29T07:50:54.112Z,92.20
2019-04-29T07:53:35.066Z,92.00
2019-04-29T07:55:56.071Z,91.90
2019-04-29T07:58:27.294Z,91.70
2019-04-29T08:00:58.090Z,91.60
2019-04-29T08:03:28.500Z,91.70
2019-04-29T08:05:59.716Z,91.30
2019-04-29T08:08:33.364Z,91.40
2019-04-29T08:11:03.557Z,91.10
2019-04-29T08:13:34.250Z,90.70
2019-04-29T08:16:04.501Z,90.50
2019-04-29T08:18:34.695Z,90.30
2019-04-29T08:21:04.886Z,90.00
2019-04-29T08:23:41.056Z,89.50
2019-04-29T08:26:07.086Z,87.50
2019-04-29T08:28:37.257Z,86.90
2019-04-29T08:31:07.469Z,87.00
2019-04-29T08:33:37.592Z,86.20
2019-04-29T08:36:07.846Z,85.50
2019-04-29T08:38:37.977Z,84.80
2019-04-29T08:41:08.314Z,84.80
2019-04-29T08:43:57.827Z,84.20
2019-04-29T08:46:32.402Z,83.60
2019-04-29T08:49:06.001Z,82.60
2019-04-29T08:51:34.533Z,80.50
2019-04-29T08:54:04.734Z,80.70
2019-04-29T08:56:34.904Z,80.20
2019-04-29T08:59:05.203Z,80.10
2019-04-29T09:01:37.367Z,80.10
2019-04-29T09:04:07.557Z,78.00
2019-04-29T09:06:37.908Z,78.70
2019-04-29T09:09:10.667Z,77.70
2019-04-29T09:11:43.548Z,77.40
2019-04-29T09:14:13.041Z,77.10
2019-04-29T09:16:43.198Z,77.10
2019-04-29T09:19:13.388Z,76.50
2019-04-29T09:21:46.426Z,77.10
2019-04-29T09:24:16.638Z,77.50
2019-04-29T09:26:54.837Z,77.20
2019-04-29T09:29:32.698Z,76.90
2019-04-29T09:32:03.172Z,75.00
2019-04-29T09:34:33.485Z,73.60
2019-04-29T09:37:03.952Z,72.20
2019-04-29T09:39:42.889Z,71.90
2019-04-29T09:42:26.939Z,73.00
2019-04-29T09:45:14.592Z,73.10
2019-04-29T09:47:45.243Z,73.60
2019-04-29T09:50:15.667Z,74.80
2019-04-29T09:52:45.915Z,74.00
2019-04-29T09:55:16.990Z,73.90
2019-04-29T09:57:47.183Z,73.80
2019-04-29T10:00:41.831Z,73.70
2019-04-29T10:03:36.966Z,72.90
2019-04-29T10:06:18.460Z,73.60
2019-04-29T10:08:48.647Z,73.80
2019-04-29T10:11:18.870Z,73.80
2019-04-29T10:13:49.067Z,73.70
2019-04-29T10:16:25.904Z,72.10
2019-04-29T10:19:05.159Z,71.70
2019-04-29T10:21:35.636Z,70.80
2019-04-29T10:24:05.811Z,71.40
2019-04-29T10:26:36.020Z,72.10
2019-04-29T10:29:13.874Z,73.00
2019-04-29T10:31:42.578Z,72.20
2019-04-29T10:34:13.328Z,73.30
2019-04-29T10:36:43.633Z,72.50
2019-04-29T10:39:43.464Z,71.80
2019-04-29T10:42:15.848Z,71.40
2019-04-29T10:45:05.971Z,70.50
2019-04-29T10:47:45.665Z,70.40
2019-04-29T10:50:23.727Z,71.70
2019-04-29T10:52:53.106Z,72.50
2019-04-29T10:55:25.587Z,72.10
2019-04-29T10:57:55.594Z,73.20
2019-04-29T11:01:16.581Z,73.10
2019-04-29T11:03:46.691Z,71.80
2019-04-29T11:06:17.145Z,72.40
2019-04-29T11:08:55.661Z,72.10
2019-04-29T11:11:27.297Z,72.60
2019-04-29T11:14:01.427Z,72.80
2019-04-29T11:16:46.045Z,74.10
2019-04-29T11:19:05.435Z,74.40
2019-04-29T11:21:34.088Z,74.30
2019-04-29T11:24:14.229Z,73.10
2019-04-29T11:26:49.438Z,73.50
2019-04-29T11:29:22.087Z,73.80
2019-04-29T11:31:54.017Z,73.60
2019-04-29T11:34:35.386Z,73.60
2019-04-29T11:37:06.492Z,72.00
2019-04-29T11:39:36.888Z,72.40
2019-04-29T11:42:09.940Z,72.10
2019-04-29T11:44:40.345Z,70.90
2019-04-29T11:47:10.657Z,70.20
2019-04-29T11:49:48.025Z,69.80
2019-04-29T11:52:18.334Z,69.40
2019-04-29T11:54:48.804Z,69.30
2019-04-29T11:57:40.325Z,68.70
2019-04-29T12:00:24.150Z,68.40
2019-04-29T12:02:57.243Z,67.40
2019-04-29T12:05:48.620Z,66.90
2019-04-29T12:08:19.138Z,68.20
2019-04-29T12:11:05.919Z,67.80
2019-04-29T12:13:31.681Z,68.90
2019-04-29T12:16:10.614Z,68.20
2019-04-29T12:18:49.099Z,67.40
2019-04-29T12:21:36.408Z,68.00
2019-04-29T12:24:08.988Z,67.40
2019-04-29T12:26:42.987Z,67.80
2019-04-29T12:29:13.659Z,68.90
2019-04-29T12:31:52.825Z,68.20
2019-04-29T12:34:48.093Z,69.20
2019-04-29T12:37:34.521Z,69.40
2019-04-29T12:40:22.662Z,69.40
2019-04-29T12:43:16.256Z,69.10
2019-04-29T12:46:00.215Z,67.90
2019-04-29T12:48:30.559Z,69.10
2019-04-29T12:51:00.808Z,67.70
2019-04-29T12:53:31.046Z,68.10
2019-04-29T12:56:01.176Z,67.50
2019-04-29T12:58:31.338Z,66.40
2019-04-29T13:01:11.770Z,67.10
2019-04-29T13:03:55.894Z,66.80
2019-04-29T13:06:40.412Z,66.30
2019-04-29T13:09:18.158Z,66.90
2019-04-29T13:11:52.133Z,67.20
2019-04-29T13:14:22.412Z,66.70
2019-04-29T13:17:15.087Z,65.90
2019-04-29T13:20:00.676Z,65.40
2019-04-29T13:22:22.135Z,64.50
2019-04-29T13:24:52.375Z,65.10
2019-04-29T13:27:25.389Z,65.40
2019-04-29T13:29:54.581Z,65.30
2019-04-29T13:32:25.491Z,64.80
2019-04-29T13:35:00.340Z,63.90
2019-04-29T13:37:30.786Z,64.40
2019-04-29T13:40:00.918Z,65.80
2019-04-29T13:42:31.158Z,65.10
2019-04-29T13:45:07.886Z,64.60
2019-04-29T13:47:50.416Z,64.40
2019-04-29T13:50:38.839Z,65.20
2019-04-29T13:52:56.030Z,63.40
2019-04-29T13:55:47.148Z,63.20
2019-04-29T13:57:58.094Z,62.70
2019-04-29T14:00:36.568Z,61.50
2019-04-29T14:03:16.496Z,62.40
2019-04-29T14:05:46.724Z,63.30
2019-04-29T14:08:16.825Z,64.30
2019-04-29T14:10:51.088Z,64.30
2019-04-29T14:13:21.141Z,63.40
2019-04-29T14:15:50.755Z,64.00
2019-04-29T14:18:20.942Z,64.60
2019-04-29T14:20:51.867Z,64.80
2019-04-29T14:23:26.223Z,63.80
2019-04-29T14:25:56.412Z,63.90
2019-04-29T14:28:26.719Z,63.70
2019-04-29T14:30:56.996Z,63.60
2019-04-29T14:33:32.178Z,64.00
2019-04-29T14:36:06.271Z,64.30
2019-04-29T14:38:40.608Z,65.50
2019-04-29T14:41:08.466Z,66.50
2019-04-29T14:43:46.607Z,67.10
2019-04-29T14:46:50.952Z,66.40
2019-04-29T14:49:26.364Z,66.70
2019-04-29T14:51:56.506Z,68.30
2019-04-29T14:54:26.622Z,69.10
2019-04-29T14:56:56.822Z,69.50
2019-04-29T14:59:27.392Z,69.90
2019-04-29T15:02:04.790Z,70.00
2019-04-29T15:04:37.397Z,70.20
2019-04-29T15:07:07.784Z,71.20
2019-04-29T15:09:55.929Z,71.50
2019-04-29T15:12:56.560Z,71.70
2019-04-29T15:15:41.909Z,72.00
2019-04-29T15:18:23.861Z,72.20
2019-04-29T15:20:56.285Z,73.10
2019-04-29T15:23:29.314Z,73.60
2019-04-29T15:25:58.401Z,73.30
2019-04-29T15:28:28.626Z,73.80
2019-04-29T15:30:58.832Z,73.40
2019-04-29T15:33:30.592Z,73.20
2019-04-29T15:36:01.670Z,73.90
2019-04-29T15:38:31.799Z,74.80
2019-04-29T15:41:05.060Z,75.80
2019-04-29T15:43:46.358Z,76.20
2019-04-29T15:46:06.560Z,77.80
2019-04-29T15:48:38.108Z,76.90
2019-04-29T15:51:09.284Z,77.10
2019-04-29T15:53:40.297Z,78.70
2019-04-29T15:56:27.578Z,79.60
2019-04-29T15:58:42.555Z,78.70
2019-04-29T16:03:44.709Z,80.00
2019-04-29T16:06:21.933Z,80.40
2019-04-29T16:08:59.092Z,80.00
2019-04-29T16:12:13.981Z,81.50
2019-04-29T16:14:39.085Z,81.30
2019-04-29T16:17:09.274Z,81.10
2019-04-29T16:19:41.311Z,80.90
2019-04-29T16:22:13.053Z,81.00
2019-04-29T16:24:44.898Z,81.60
2019-04-29T16:27:15.238Z,81.60
2019-04-29T16:29:46.278Z,82.20
2019-04-29T16:32:38.521Z,81.50
2019-04-29T16:35:09.769Z,81.30
2019-04-29T16:37:40.379Z,81.00
2019-04-29T16:40:11.419Z,81.30
2019-04-29T16:42:49.341Z,81.80
2019-04-29T16:45:21.482Z,82.20
2019-04-29T16:47:51.668Z,81.70
2019-04-29T16:50:22.131Z,81.90
2019-04-29T16:52:52.463Z,82.10
2019-04-29T16:55:22.700Z,82.30
2019-04-29T16:57:53.281Z,82.40
2019-04-29T17:00:27.847Z,82.60
2019-04-29T17:02:58.124Z,82.50
2019-04-29T17:05:28.398Z,82.50
2019-04-29T17:07:58.773Z,83.20
2019-04-29T17:10:39.423Z,82.50
2019-04-29T17:13:15.063Z,82.90
2019-04-29T17:15:44.565Z,83.30
2019-04-29T17:18:15.629Z,83.10
2019-04-29T17:20:45.936Z,83.70
2019-04-29T17:23:23.889Z,84.00
2019-04-29T17:25:48.366Z,84.00
2019-04-29T17:28:25.291Z,84.40
2019-04-29T17:31:15.460Z,85.60
2019-04-29T17:33:53.312Z,85.50
2019-04-29T17:35:19.165Z,79.90
2019-04-29T17:36:25.819Z,85.50
2019-04-29T17:38:56.348Z,85.50
2019-04-29T17:41:26.906Z,86.00
2019-04-29T17:44:18.740Z,86.70
2019-04-29T17:47:13.231Z,86.80
2019-04-29T17:49:54.599Z,86.80
2019-04-29T17:52:27.231Z,87.30
2019-04-29T17:55:22.733Z,88.40
2019-04-29T17:58:01.941Z,88.90
2019-04-29T18:00:57.832Z,88.10
2019-04-29T18:03:41.618Z,88.20
2019-04-29T18:06:24.134Z,90.00
2019-04-29T18:09:28.233Z,89.10
2019-04-29T18:12:02.180Z,89.30
2019-04-29T18:14:37.893Z,89.70
2019-04-29T18:17:06.014Z,90.50
2019-04-29T18:19:48.662Z,90.20
2019-04-29T18:22:50.110Z,90.10
2019-04-29T18:25:32.489Z,90.50
2019-04-29T18:28:02.970Z,90.60
2019-04-29T18:30:37.989Z,90.70
2019-04-29T18:33:06.096Z,90.70
2019-04-29T18:35:36.296Z,90.80
2019-04-29T18:38:07.490Z,90.60
2019-04-29T18:40:42.111Z,90.60
2019-04-29T18:43:10.432Z,90.70
2019-04-29T18:45:52.888Z,90.80
2019-04-29T18:48:17.017Z,90.70
2019-04-29T18:50:46.257Z,90.70
2019-04-29T18:53:16.544Z,90.80
2019-04-29T18:55:46.770Z,90.90
2019-04-29T18:58:16.988Z,90.90
2019-04-29T19:00:52.404Z,90.90
2019-04-29T19:03:25.261Z,90.90
2019-04-29T19:05:57.579Z,90.90
2019-04-29T19:08:30.474Z,91.30
2019-04-29T19:11:00.219Z,91.20
2019-04-29T19:13:33.570Z,91.50
2019-04-29T19:16:10.271Z,91.40
2019-04-29T19:18:35.690Z,91.40
2019-04-29T19:21:06.875Z,91.40
2019-04-29T19:23:37.345Z,91.60
2019-04-29T19:26:07.569Z,92.00
2019-04-29T19:28:37.815Z,91.90
2019-04-29T19:31:09.934Z,92.00
2019-04-29T19:33:40.091Z,91.90
2019-04-29T19:36:17.062Z,91.80
2019-04-29T19:38:44.144Z,91.90
2019-04-29T19:41:16.469Z,92.20
2019-04-29T19:43:48.273Z,92.10
2019-04-29T19:46:24.113Z,92.10
2019-04-29T19:48:50.076Z,92.20
2019-04-29T19:51:22.908Z,92.00
2019-04-29T19:53:52.249Z,92.00
2019-04-29T19:56:24.593Z,92.00
2019-04-29T19:58:57.191Z,92.10
2019-04-29T20:01:31.541Z,92.00
2019-04-29T20:04:11.068Z,92.30
2019-04-29T20:06:39.328Z,92.10
2019-04-29T20:09:17.342Z,92.20
2019-04-29T20:11:45.417Z,92.60
2019-04-29T20:14:21.165Z,92.30
2019-04-29T20:17:12.902Z,92.50
2019-04-29T20:19:58.826Z,92.40
2019-04-29T20:22:23.990Z,92.20
2019-04-29T20:24:55.642Z,92.40
2019-04-29T20:27:30.788Z,92.40
2019-04-29T20:29:58.038Z,92.40
2019-04-29T20:32:31.830Z,92.50
2019-04-29T20:35:07.097Z,92.80
2019-04-29T20:37:32.407Z,92.50
2019-04-29T20:40:02.866Z,92.60
2019-04-29T20:42:33.204Z,92.70
2019-04-29T20:45:05.263Z,92.70
2019-04-29T20:47:38.561Z,92.80
2019-04-29T20:50:08.973Z,92.70
2019-04-29T20:53:02.404Z,92.80
2019-04-29T20:55:36.615Z,92.90
2019-04-29T20:58:07.084Z,92.80
2019-04-29T21:00:39.654Z,92.90
2019-04-29T21:03:11.545Z,93.00
2019-04-29T21:05:49.625Z,92.80
2019-04-29T21:08:18.603Z,93.00
2019-04-29T21:10:50.538Z,93.10
2019-04-29T21:13:56.095Z,93.10
2019-04-29T21:16:29.644Z,93.30
2019-04-29T21:19:08.462Z,93.20
2019-04-29T21:21:41.899Z,93.10
2019-04-29T21:24:14.052Z,93.50
2019-04-29T21:26:44.349Z,93.20
2019-04-29T21:29:15.834Z,93.80
2019-04-29T21:31:46.159Z,93.90
2019-04-29T21:34:17.688Z,93.90
2019-04-29T21:37:08.548Z,94.10
2019-04-29T21:39:47.234Z,94.00
2019-04-29T21:42:39.329Z,94.20
2019-04-29T21:45:12.020Z,93.90
2019-04-29T21:47:45.616Z,94.10
2019-04-29T21:50:15.160Z,94.20
2019-04-29T21:52:46.822Z,94.40
2019-04-29T21:55:20.654Z,94.10
2019-04-29T21:57:49.137Z,94.10
2019-04-29T22:00:23.977Z,94.50
2019-04-29T22:02:51.730Z,94.20
2019-04-29T22:05:21.917Z,94.40
2019-04-29T22:07:52.054Z,94.80
2019-04-29T22:10:27.442Z,94.70
2019-04-29T22:12:58.286Z,94.50
2019-04-29T22:15:32.696Z,94.90
2019-04-29T22:18:01.267Z,94.80
2019-04-29T22:20:30.268Z,95.10
2019-04-29T22:23:00.411Z,94.70
2019-04-29T22:25:30.672Z,95.10
2019-04-29T22:28:00.970Z,95.00
2019-04-29T22:30:31.119Z,95.00
2019-04-29T22:33:01.337Z,95.30
2019-04-29T22:35:32.728Z,95.20
2019-04-29T22:38:03.486Z,95.50
2019-04-29T22:40:40.739Z,95.40
2019-04-29T22:43:16.723Z,95.40
2019-04-29T22:45:46.868Z,95.60
2019-04-29T22:48:19.674Z,96.00
2019-04-29T22:50:48.851Z,95.30
2019-04-29T22:53:19.073Z,95.50
2019-04-29T22:55:49.193Z,95.50
2019-04-29T22:58:19.342Z,95.90
2019-04-29T23:00:49.614Z,96.20
2019-04-29T23:03:19.839Z,96.10
2019-04-29T23:05:49.989Z,96.30
2019-04-29T23:08:20.311Z,96.40
2019-04-29T23:10:50.525Z,96.40
2019-04-29T23:13:20.713Z,97.10
2019-04-29T23:15:53.842Z,96.90
2019-04-29T23:18:26.743Z,97.10
2019-04-29T23:21:11.906Z,96.40
2019-04-29T23:23:46.385Z,97.00
2019-04-29T23:26:17.236Z,97.80
2019-04-29T23:28:47.388Z,97.30
2019-04-29T23:31:17.622Z,97.30
2019-04-29T23:33:47.871Z,97.40
2019-04-29T23:36:18.048Z,97.10
2019-04-29T23:38:48.242Z,97.20
2019-04-29T23:41:18.676Z,97.10
2019-04-29T23:43:48.897Z,97.00
2019-04-29T23:46:19.127Z,96.90
2019-04-29T23:48:49.319Z,97.30
2019-04-29T23:51:19.513Z,97.30
2019-04-29T23:53:49.718Z,97.40
2019-04-29T23:56:21.657Z,97.50
2019-04-29T23:58:56.965Z,97.20
